Blue River, OR

3:14 PM PDT on August 30, 2014 (GMT -0700)
Blue River | Change Station
CLOSE
Current Station
Personal Weather Station
Location: Oregon, OR
Elevation: 1188 ft
Nearby Weather Stations

Elev 1188 ft 44.16 °N, 122.30 °W | Updated 3 minutes ago

Overcast
Overcast
66.6 °F
Feels Like 66.6 °F
N
0.0
Wind Variable Wind from SSE
Gusts 4.0 mph

Today
High -- | Low -- °F
--% Chance of Precip.
Yesterday
High -- | Low -- °F
Precip. -- in
6:29 AM 7:47 PM
Waxing Crescent, 25% visible
Pressure 29.92 in
Visibility 10.0 miles
Clouds Mostly Cloudy 5000 ft
Mostly Cloudy 7000 ft
Dew Point 46 °F
Humidity 47%
Rainfall 0.00 in
Snow Depth 0 in , 0 in , 0 in
UV 4 out of 12
Pollen 3.00 out of 12
PM2.5 Moderate
Flu Activity Not available.
METAR KRDM 302156Z 30013KT 10SM BKN050 BKN070 19/08 A2996 RMK AO2 SLP130 T01890083

More Conditions Fewer Conditions

Pressure 29.92 in
Visibility 10.0 miles
Clouds Mostly Cloudy 5000 ft
Mostly Cloudy 7000 ft
Dew Point 46 °F
Humidity 47%
Rainfall 0.00 in
Snow Depth 0 in , 0 in , 0 in
UV 4 out of 12
Pollen 3.00 out of 12
PM2.5 Moderate
Flu Activity Not available.
METAR KRDM 302156Z 30013KT 10SM BKN050 BKN070 19/08 A2996 RMK AO2 SLP130 T01890083

More Conditions Fewer Conditions

10-Day Weather Forecast

Almanac

Astronomy

Aug. 30, 2014 Rise Set
Actual Time 6:29 AM PDT 7:47 PM PDT
Civil Twilight 5:59 AM PDT 8:17 PM PDT
Nautical Twilight 5:23 AM PDT 8:53 PM PDT
Astronomical Twilight 4:44 AM PDT 9:31 PM PDT
Moon 11:34 AM PDT 10:13 PM PDT
Length of Visible Light 14h 18m
Length of Day
13h 18m
Tomorrow will be 2m 55s shorter.
Waxing Crescent, 25% of the Moon is Illuminated
Today
Waxing Crescent
Sep 2
First Quarter
Sep 8
Full
Sep 15
Last Quarter
Sep 24
New

Today's Extremes

State Highs State Lows

Community

WunderPhotos

Upload Photos

1,748,657 photos uploaded!

WunderBlogs® & News

Nearby

Air Quality

  Air Quality AQ Index Pollutant
Yesterday Unhealthy for Sensitive Groups
PM2.5
Current Moderate
PM2.5
Saturday Unhealthy for Sensitive Groups
PM2.5
Sunday Unhealthy for Sensitive Groups
PM2.5

Snow Depth

Station Depth Elevation
Mckenzie 0 in 4800 ft
Roaring River 0 in 4900 ft
Santiam Junction 0 in 3750 ft
Hogg Pass 1 in 4760 ft
Three Creeks Meadow 0 in 5650 ft

Earthquake Activity

City Distance Mag. Time & Date
No recent earthquake activity has been reported nearby.
Minimum magnitude displayed is 2.5.

Coastal Water Temperatures

Place Temperature
No Stations Reporting

Nearby Weather Stations